83IL weather

Oltman-Shuck Airport
Minonk, Illinois, United States

Public forecast

Using degrees Fahrenheit for public forecast. Weather courtesy of forecast.io.

METAR (pilot weather report)

Closest report is Marshall County Airport, 14.9 nm (27.6 km) WNW. Retrieved 2019/06/26 23:35 UTC (0 seconds ago):

KC75 262335Z AUTO 19003KT 10SM CLR 28/22 A3000 RMK AO2 LTG DSNT SW AND W T02800223

TAF (pilot weather forecast)

Closest forecast is Central Illinois Regional Airport at Bloomington-Normal, 26.4 nm (48.9 km) SSE. Retrieved 2019/06/26 18:22 UTC (5 hours ago):

TAF KBMI 261720Z 2618/2718 22009KT P6SM FEW040 BKN250 FM262200 21011KT P6SM VCTS SCT040CB BKN070 FM270300 18005KT P6SM SCT120 BKN250